sensor_id;sensor_type;location;lat;lon;timestamp;P1;durP1;ratioP1;P2;durP2;ratioP2
22318;SDS011;11327;52.334;9.506;2023-09-07T00:02:38;5.78;;;3.40;;
22318;SDS011;11327;52.334;9.506;2023-09-07T00:05:59;4.87;;;3.85;;
22318;SDS011;11327;52.334;9.506;2023-09-07T00:09:19;4.72;;;3.75;;
22318;SDS011;11327;52.334;9.506;2023-09-07T00:12:42;4.72;;;4.22;;
22318;SDS011;11327;52.334;9.506;2023-09-07T00:16:03;7.97;;;3.90;;
22318;SDS011;11327;52.334;9.506;2023-09-07T00:19:24;4.20;;;3.60;;
22318;SDS011;11327;52.334;9.506;2023-09-07T00:22:45;5.33;;;3.87;;
22318;SDS011;11327;52.334;9.506;2023-09-07T00:26:06;4.87;;;3.70;;
22318;SDS011;11327;52.334;9.506;2023-09-07T00:29:27;6.35;;;4.08;;
22318;SDS011;11327;52.334;9.506;2023-09-07T00:32:47;5.78;;;3.87;;
22318;SDS011;11327;52.334;9.506;2023-09-07T00:36:08;5.42;;;4.20;;
22318;SDS011;11327;52.334;9.506;2023-09-07T00:39:29;4.72;;;4.20;;
22318;SDS011;11327;52.334;9.506;2023-09-07T00:42:49;4.75;;;4.10;;
22318;SDS011;11327;52.334;9.506;2023-09-07T00:46:10;4.47;;;4.00;;
22318;SDS011;11327;52.334;9.506;2023-09-07T00:49:31;5.42;;;4.53;;
22318;SDS011;11327;52.334;9.506;2023-09-07T00:52:52;6.25;;;4.33;;
22318;SDS011;11327;52.334;9.506;2023-09-07T00:56:13;6.60;;;4.08;;
22318;SDS011;11327;52.334;9.506;2023-09-07T00:59:34;5.25;;;4.20;;
22318;SDS011;11327;52.334;9.506;2023-09-07T01:02:55;5.80;;;4.35;;
22318;SDS011;11327;52.334;9.506;2023-09-07T01:06:18;6.15;;;4.30;;
22318;SDS011;11327;52.334;9.506;2023-09-07T01:09:43;5.22;;;4.08;;
22318;SDS011;11327;52.334;9.506;2023-09-07T01:13:07;7.42;;;4.60;;
22318;SDS011;11327;52.334;9.506;2023-09-07T01:16:27;6.53;;;4.03;;
22318;SDS011;11327;52.334;9.506;2023-09-07T01:19:49;5.65;;;4.50;;
22318;SDS011;11327;52.334;9.506;2023-09-07T01:23:10;5.12;;;4.20;;
22318;SDS011;11327;52.334;9.506;2023-09-07T01:26:34;6.42;;;4.20;;
22318;SDS011;11327;52.334;9.506;2023-09-07T01:29:55;5.28;;;4.17;;
22318;SDS011;11327;52.334;9.506;2023-09-07T01:33:15;4.90;;;4.10;;
22318;SDS011;11327;52.334;9.506;2023-09-07T01:36:36;6.40;;;4.40;;
22318;SDS011;11327;52.334;9.506;2023-09-07T01:39:57;5.40;;;4.45;;
22318;SDS011;11327;52.334;9.506;2023-09-07T01:43:18;5.70;;;4.83;;
22318;SDS011;11327;52.334;9.506;2023-09-07T01:46:40;5.97;;;4.40;;
22318;SDS011;11327;52.334;9.506;2023-09-07T01:50:01;7.47;;;4.70;;
22318;SDS011;11327;52.334;9.506;2023-09-07T01:53:21;6.85;;;4.60;;
22318;SDS011;11327;52.334;9.506;2023-09-07T01:56:42;5.95;;;4.65;;
22318;SDS011;11327;52.334;9.506;2023-09-07T02:00:03;6.22;;;4.70;;
22318;SDS011;11327;52.334;9.506;2023-09-07T02:03:26;6.53;;;4.58;;
22318;SDS011;11327;52.334;9.506;2023-09-07T02:06:47;5.50;;;4.90;;
22318;SDS011;11327;52.334;9.506;2023-09-07T02:10:08;6.47;;;4.28;;
22318;SDS011;11327;52.334;9.506;2023-09-07T02:13:29;4.65;;;4.25;;
22318;SDS011;11327;52.334;9.506;2023-09-07T02:16:49;6.83;;;4.55;;
22318;SDS011;11327;52.334;9.506;2023-09-07T02:20:11;6.00;;;4.80;;
22318;SDS011;11327;52.334;9.506;2023-09-07T02:23:32;6.87;;;5.03;;
22318;SDS011;11327;52.334;9.506;2023-09-07T02:26:53;5.75;;;4.60;;
22318;SDS011;11327;52.334;9.506;2023-09-07T02:30:14;5.75;;;5.15;;
22318;SDS011;11327;52.334;9.506;2023-09-07T02:33:34;6.90;;;5.10;;
22318;SDS011;11327;52.334;9.506;2023-09-07T02:36:55;7.72;;;5.60;;
22318;SDS011;11327;52.334;9.506;2023-09-07T02:40:17;6.90;;;5.22;;
22318;SDS011;11327;52.334;9.506;2023-09-07T02:43:38;7.08;;;5.60;;
22318;SDS011;11327;52.334;9.506;2023-09-07T02:46:59;10.08;;;6.25;;
22318;SDS011;11327;52.334;9.506;2023-09-07T02:50:19;6.08;;;5.40;;
22318;SDS011;11327;52.334;9.506;2023-09-07T02:53:40;8.38;;;5.72;;
22318;SDS011;11327;52.334;9.506;2023-09-07T02:57:01;7.15;;;5.87;;
22318;SDS011;11327;52.334;9.506;2023-09-07T03:00:22;6.95;;;5.58;;
22318;SDS011;11327;52.334;9.506;2023-09-07T03:03:43;7.45;;;5.55;;
22318;SDS011;11327;52.334;9.506;2023-09-07T03:07:04;6.95;;;5.60;;
22318;SDS011;11327;52.334;9.506;2023-09-07T03:10:25;6.92;;;5.67;;
22318;SDS011;11327;52.334;9.506;2023-09-07T03:13:45;6.78;;;5.58;;
22318;SDS011;11327;52.334;9.506;2023-09-07T03:17:06;6.62;;;5.92;;
22318;SDS011;11327;52.334;9.506;2023-09-07T03:20:27;6.78;;;5.90;;
22318;SDS011;11327;52.334;9.506;2023-09-07T03:23:47;7.70;;;6.25;;
22318;SDS011;11327;52.334;9.506;2023-09-07T03:27:08;6.87;;;6.05;;
22318;SDS011;11327;52.334;9.506;2023-09-07T03:30:31;7.17;;;5.50;;
22318;SDS011;11327;52.334;9.506;2023-09-07T03:33:51;7.83;;;6.10;;
22318;SDS011;11327;52.334;9.506;2023-09-07T03:37:12;7.50;;;6.45;;
22318;SDS011;11327;52.334;9.506;2023-09-07T03:40:33;6.85;;;6.15;;
22318;SDS011;11327;52.334;9.506;2023-09-07T03:43:54;9.05;;;6.75;;
22318;SDS011;11327;52.334;9.506;2023-09-07T03:47:14;8.35;;;6.50;;
22318;SDS011;11327;52.334;9.506;2023-09-07T03:50:35;8.35;;;5.75;;
22318;SDS011;11327;52.334;9.506;2023-09-07T03:53:57;8.88;;;6.45;;
22318;SDS011;11327;52.334;9.506;2023-09-07T03:57:19;6.45;;;5.55;;
22318;SDS011;11327;52.334;9.506;2023-09-07T04:00:40;7.12;;;6.00;;
22318;SDS011;11327;52.334;9.506;2023-09-07T04:04:01;7.70;;;6.50;;
22318;SDS011;11327;52.334;9.506;2023-09-07T04:07:23;9.75;;;7.20;;
22318;SDS011;11327;52.334;9.506;2023-09-07T04:10:44;8.68;;;6.97;;
22318;SDS011;11327;52.334;9.506;2023-09-07T04:14:05;7.83;;;7.00;;
22318;SDS011;11327;52.334;9.506;2023-09-07T04:17:28;10.30;;;7.85;;
22318;SDS011;11327;52.334;9.506;2023-09-07T04:20:50;9.98;;;7.50;;
22318;SDS011;11327;52.334;9.506;2023-09-07T04:24:10;9.45;;;7.25;;
22318;SDS011;11327;52.334;9.506;2023-09-07T04:27:31;11.75;;;8.55;;
22318;SDS011;11327;52.334;9.506;2023-09-07T04:30:52;9.40;;;8.15;;
22318;SDS011;11327;52.334;9.506;2023-09-07T04:34:12;8.85;;;7.75;;
22318;SDS011;11327;52.334;9.506;2023-09-07T04:37:33;10.53;;;7.92;;
22318;SDS011;11327;52.334;9.506;2023-09-07T04:40:54;10.23;;;8.23;;
22318;SDS011;11327;52.334;9.506;2023-09-07T04:44:14;8.68;;;7.45;;
22318;SDS011;11327;52.334;9.506;2023-09-07T04:47:35;9.95;;;7.45;;
22318;SDS011;11327;52.334;9.506;2023-09-07T04:50:58;8.88;;;7.37;;
22318;SDS011;11327;52.334;9.506;2023-09-07T04:54:23;9.43;;;7.83;;
22318;SDS011;11327;52.334;9.506;2023-09-07T04:57:44;11.73;;;7.83;;
22318;SDS011;11327;52.334;9.506;2023-09-07T05:01:05;7.78;;;6.97;;
22318;SDS011;11327;52.334;9.506;2023-09-07T05:04:27;8.05;;;7.20;;
22318;SDS011;11327;52.334;9.506;2023-09-07T05:07:49;9.05;;;7.00;;
22318;SDS011;11327;52.334;9.506;2023-09-07T05:11:09;9.90;;;8.10;;
22318;SDS011;11327;52.334;9.506;2023-09-07T05:14:30;10.48;;;7.70;;
22318;SDS011;11327;52.334;9.506;2023-09-07T05:17:51;9.90;;;7.90;;
22318;SDS011;11327;52.334;9.506;2023-09-07T05:21:13;9.93;;;8.08;;
22318;SDS011;11327;52.334;9.506;2023-09-07T05:24:37;9.00;;;7.70;;
22318;SDS011;11327;52.334;9.506;2023-09-07T05:28:01;9.43;;;7.73;;
22318;SDS011;11327;52.334;9.506;2023-09-07T05:31:22;8.80;;;7.90;;
22318;SDS011;11327;52.334;9.506;2023-09-07T05:34:43;9.00;;;7.70;;
22318;SDS011;11327;52.334;9.506;2023-09-07T05:38:04;9.10;;;7.22;;
22318;SDS011;11327;52.334;9.506;2023-09-07T05:41:26;8.60;;;7.72;;
22318;SDS011;11327;52.334;9.506;2023-09-07T05:44:47;9.20;;;7.75;;
22318;SDS011;11327;52.334;9.506;2023-09-07T05:48:07;10.13;;;7.53;;
22318;SDS011;11327;52.334;9.506;2023-09-07T05:51:29;8.05;;;7.25;;
22318;SDS011;11327;52.334;9.506;2023-09-07T05:54:49;10.13;;;8.15;;
22318;SDS011;11327;52.334;9.506;2023-09-07T05:58:10;9.58;;;8.20;;
22318;SDS011;11327;52.334;9.506;2023-09-07T06:01:33;8.63;;;7.60;;
22318;SDS011;11327;52.334;9.506;2023-09-07T06:04:54;11.28;;;8.13;;
22318;SDS011;11327;52.334;9.506;2023-09-07T06:08:14;9.23;;;7.78;;
22318;SDS011;11327;52.334;9.506;2023-09-07T06:11:35;8.90;;;8.00;;
22318;SDS011;11327;52.334;9.506;2023-09-07T06:14:56;10.25;;;8.28;;
22318;SDS011;11327;52.334;9.506;2023-09-07T06:18:16;9.85;;;8.30;;
22318;SDS011;11327;52.334;9.506;2023-09-07T06:21:37;9.95;;;8.45;;
22318;SDS011;11327;52.334;9.506;2023-09-07T06:24:58;9.38;;;8.08;;
22318;SDS011;11327;52.334;9.506;2023-09-07T06:28:18;9.43;;;7.83;;
22318;SDS011;11327;52.334;9.506;2023-09-07T06:31:39;9.23;;;8.25;;
22318;SDS011;11327;52.334;9.506;2023-09-07T06:35:00;8.70;;;7.80;;
22318;SDS011;11327;52.334;9.506;2023-09-07T06:38:21;10.23;;;8.30;;
22318;SDS011;11327;52.334;9.506;2023-09-07T06:41:41;10.40;;;9.03;;
22318;SDS011;11327;52.334;9.506;2023-09-07T06:45:02;12.07;;;8.98;;
22318;SDS011;11327;52.334;9.506;2023-09-07T06:48:23;10.40;;;8.45;;
22318;SDS011;11327;52.334;9.506;2023-09-07T06:51:44;10.75;;;8.05;;
22318;SDS011;11327;52.334;9.506;2023-09-07T06:55:04;10.93;;;8.55;;
22318;SDS011;11327;52.334;9.506;2023-09-07T06:58:25;8.95;;;7.20;;
22318;SDS011;11327;52.334;9.506;2023-09-07T07:01:46;9.23;;;7.83;;
22318;SDS011;11327;52.334;9.506;2023-09-07T07:05:07;9.38;;;7.85;;
22318;SDS011;11327;52.334;9.506;2023-09-07T07:08:28;9.78;;;8.08;;
22318;SDS011;11327;52.334;9.506;2023-09-07T07:11:49;8.85;;;7.60;;
22318;SDS011;11327;52.334;9.506;2023-09-07T07:15:10;8.83;;;7.28;;
22318;SDS011;11327;52.334;9.506;2023-09-07T07:18:32;8.63;;;7.70;;
22318;SDS011;11327;52.334;9.506;2023-09-07T07:21:52;8.90;;;7.87;;
22318;SDS011;11327;52.334;9.506;2023-09-07T07:25:13;9.23;;;7.55;;
22318;SDS011;11327;52.334;9.506;2023-09-07T07:28:34;9.83;;;8.33;;
22318;SDS011;11327;52.334;9.506;2023-09-07T07:31:55;9.28;;;8.05;;
22318;SDS011;11327;52.334;9.506;2023-09-07T07:35:16;9.45;;;8.00;;
22318;SDS011;11327;52.334;9.506;2023-09-07T07:38:37;9.00;;;7.62;;
22318;SDS011;11327;52.334;9.506;2023-09-07T07:41:57;9.95;;;7.87;;
22318;SDS011;11327;52.334;9.506;2023-09-07T07:45:18;10.20;;;8.45;;
22318;SDS011;11327;52.334;9.506;2023-09-07T07:48:40;8.68;;;7.60;;
22318;SDS011;11327;52.334;9.506;2023-09-07T07:52:01;8.18;;;7.17;;
22318;SDS011;11327;52.334;9.506;2023-09-07T07:55:21;8.65;;;7.62;;
22318;SDS011;11327;52.334;9.506;2023-09-07T07:58:42;8.88;;;7.10;;
22318;SDS011;11327;52.334;9.506;2023-09-07T08:02:04;9.08;;;6.37;;
22318;SDS011;11327;52.334;9.506;2023-09-07T08:05:26;7.35;;;6.55;;
22318;SDS011;11327;52.334;9.506;2023-09-07T08:08:47;7.83;;;7.00;;
22318;SDS011;11327;52.334;9.506;2023-09-07T08:12:07;6.85;;;6.15;;
22318;SDS011;11327;52.334;9.506;2023-09-07T08:15:28;7.90;;;6.28;;
22318;SDS011;11327;52.334;9.506;2023-09-07T08:18:49;8.35;;;6.42;;
22318;SDS011;11327;52.334;9.506;2023-09-07T08:22:10;8.43;;;6.97;;
22318;SDS011;11327;52.334;9.506;2023-09-07T08:25:31;8.43;;;6.85;;
22318;SDS011;11327;52.334;9.506;2023-09-07T08:28:52;8.35;;;6.53;;
22318;SDS011;11327;52.334;9.506;2023-09-07T08:32:13;8.08;;;7.05;;
22318;SDS011;11327;52.334;9.506;2023-09-07T08:35:34;6.95;;;6.25;;
22318;SDS011;11327;52.334;9.506;2023-09-07T08:38:55;7.12;;;5.92;;
22318;SDS011;11327;52.334;9.506;2023-09-07T08:42:16;7.80;;;7.00;;
22318;SDS011;11327;52.334;9.506;2023-09-07T08:45:41;8.98;;;6.25;;
22318;SDS011;11327;52.334;9.506;2023-09-07T08:49:03;7.47;;;6.67;;
22318;SDS011;11327;52.334;9.506;2023-09-07T08:52:25;9.90;;;6.75;;
22318;SDS011;11327;52.334;9.506;2023-09-07T08:55:45;9.65;;;7.10;;
22318;SDS011;11327;52.334;9.506;2023-09-07T08:59:07;11.30;;;7.30;;
22318;SDS011;11327;52.334;9.506;2023-09-07T09:02:28;10.58;;;7.75;;
22318;SDS011;11327;52.334;9.506;2023-09-07T09:05:50;11.88;;;7.58;;
22318;SDS011;11327;52.334;9.506;2023-09-07T09:09:21;10.93;;;7.33;;
22318;SDS011;11327;52.334;9.506;2023-09-07T09:12:36;9.53;;;8.08;;
22318;SDS011;11327;52.334;9.506;2023-09-07T09:16:07;9.70;;;7.45;;
22318;SDS011;11327;52.334;9.506;2023-09-07T09:19:33;8.25;;;7.10;;
22318;SDS011;11327;52.334;9.506;2023-09-07T09:22:54;8.60;;;7.30;;
22318;SDS011;11327;52.334;9.506;2023-09-07T09:26:16;11.22;;;7.58;;
22318;SDS011;11327;52.334;9.506;2023-09-07T09:29:37;9.38;;;7.15;;
22318;SDS011;11327;52.334;9.506;2023-09-07T09:32:58;11.80;;;7.67;;
22318;SDS011;11327;52.334;9.506;2023-09-07T09:36:19;10.28;;;7.53;;
22318;SDS011;11327;52.334;9.506;2023-09-07T09:39:41;13.08;;;7.90;;
22318;SDS011;11327;52.334;9.506;2023-09-07T09:43:02;9.38;;;7.28;;
22318;SDS011;11327;52.334;9.506;2023-09-07T09:46:24;10.35;;;7.00;;
22318;SDS011;11327;52.334;9.506;2023-09-07T09:49:45;8.05;;;6.37;;
22318;SDS011;11327;52.334;9.506;2023-09-07T09:53:07;8.00;;;6.60;;
22318;SDS011;11327;52.334;9.506;2023-09-07T09:56:29;8.03;;;6.10;;
22318;SDS011;11327;52.334;9.506;2023-09-07T09:59:50;8.98;;;6.03;;
22318;SDS011;11327;52.334;9.506;2023-09-07T10:03:17;8.78;;;6.45;;
22318;SDS011;11327;52.334;9.506;2023-09-07T10:07:18;7.08;;;6.12;;
22318;SDS011;11327;52.334;9.506;2023-09-07T10:10:17;8.58;;;6.08;;
22318;SDS011;11327;52.334;9.506;2023-09-07T10:13:39;8.00;;;5.78;;
22318;SDS011;11327;52.334;9.506;2023-09-07T10:17:00;7.58;;;5.95;;
22318;SDS011;11327;52.334;9.506;2023-09-07T10:20:22;7.00;;;5.97;;
22318;SDS011;11327;52.334;9.506;2023-09-07T10:23:44;7.10;;;5.60;;
22318;SDS011;11327;52.334;9.506;2023-09-07T10:27:06;6.20;;;5.05;;
22318;SDS011;11327;52.334;9.506;2023-09-07T10:30:28;6.72;;;5.30;;
22318;SDS011;11327;52.334;9.506;2023-09-07T10:33:49;8.75;;;5.78;;
22318;SDS011;11327;52.334;9.506;2023-09-07T10:37:14;5.90;;;5.30;;
22318;SDS011;11327;52.334;9.506;2023-09-07T10:40:33;6.90;;;5.60;;
22318;SDS011;11327;52.334;9.506;2023-09-07T10:43:54;7.20;;;5.70;;
22318;SDS011;11327;52.334;9.506;2023-09-07T10:47:15;6.22;;;5.25;;
22318;SDS011;11327;52.334;9.506;2023-09-07T10:50:43;7.17;;;5.05;;
22318;SDS011;11327;52.334;9.506;2023-09-07T10:54:12;7.62;;;5.22;;
22318;SDS011;11327;52.334;9.506;2023-09-07T10:57:44;5.95;;;4.67;;
22318;SDS011;11327;52.334;9.506;2023-09-07T11:01:06;6.80;;;5.12;;
22318;SDS011;11327;52.334;9.506;2023-09-07T11:04:30;6.45;;;4.80;;
22318;SDS011;11327;52.334;9.506;2023-09-07T11:07:50;6.53;;;4.92;;
22318;SDS011;11327;52.334;9.506;2023-09-07T11:11:11;5.10;;;4.67;;
22318;SDS011;11327;52.334;9.506;2023-09-07T11:14:37;5.20;;;4.70;;
22318;SDS011;11327;52.334;9.506;2023-09-07T11:17:55;5.50;;;4.62;;
22318;SDS011;11327;52.334;9.506;2023-09-07T11:21:16;6.20;;;4.83;;
22318;SDS011;11327;52.334;9.506;2023-09-07T11:24:37;5.70;;;4.83;;
22318;SDS011;11327;52.334;9.506;2023-09-07T11:27:58;6.28;;;4.62;;
22318;SDS011;11327;52.334;9.506;2023-09-07T11:31:19;5.50;;;4.75;;
22318;SDS011;11327;52.334;9.506;2023-09-07T11:34:46;9.48;;;4.95;;
22318;SDS011;11327;52.334;9.506;2023-09-07T11:38:12;5.45;;;4.45;;
22318;SDS011;11327;52.334;9.506;2023-09-07T11:41:34;5.42;;;4.53;;
22318;SDS011;11327;52.334;9.506;2023-09-07T11:44:55;5.10;;;4.60;;
22318;SDS011;11327;52.334;9.506;2023-09-07T11:48:15;9.30;;;4.60;;
22318;SDS011;11327;52.334;9.506;2023-09-07T11:51:36;7.12;;;4.35;;
22318;SDS011;11327;52.334;9.506;2023-09-07T11:54:57;4.55;;;4.15;;
22318;SDS011;11327;52.334;9.506;2023-09-07T11:58:18;7.12;;;4.62;;
22318;SDS011;11327;52.334;9.506;2023-09-07T12:01:39;5.80;;;4.70;;
22318;SDS011;11327;52.334;9.506;2023-09-07T12:05:00;5.47;;;4.50;;
22318;SDS011;11327;52.334;9.506;2023-09-07T12:08:23;6.80;;;4.28;;
22318;SDS011;11327;52.334;9.506;2023-09-07T12:11:43;5.95;;;4.15;;
22318;SDS011;11327;52.334;9.506;2023-09-07T12:15:04;7.08;;;4.20;;
22318;SDS011;11327;52.334;9.506;2023-09-07T12:18:26;5.05;;;4.33;;
22318;SDS011;11327;52.334;9.506;2023-09-07T12:21:47;5.80;;;4.25;;
22318;SDS011;11327;52.334;9.506;2023-09-07T12:25:07;4.53;;;4.10;;
22318;SDS011;11327;52.334;9.506;2023-09-07T12:28:29;4.67;;;3.95;;
22318;SDS011;11327;52.334;9.506;2023-09-07T12:31:51;4.85;;;4.35;;
22318;SDS011;11327;52.334;9.506;2023-09-07T12:35:11;5.58;;;4.22;;
22318;SDS011;11327;52.334;9.506;2023-09-07T12:38:32;6.40;;;4.10;;
22318;SDS011;11327;52.334;9.506;2023-09-07T12:41:53;4.20;;;3.67;;
22318;SDS011;11327;52.334;9.506;2023-09-07T12:45:14;8.03;;;4.62;;
22318;SDS011;11327;52.334;9.506;2023-09-07T12:48:35;6.97;;;4.33;;
22318;SDS011;11327;52.334;9.506;2023-09-07T12:51:56;5.03;;;3.92;;
22318;SDS011;11327;52.334;9.506;2023-09-07T12:55:16;5.25;;;3.72;;
22318;SDS011;11327;52.334;9.506;2023-09-07T12:58:39;6.05;;;4.25;;
22318;SDS011;11327;52.334;9.506;2023-09-07T13:01:59;5.08;;;4.00;;
22318;SDS011;11327;52.334;9.506;2023-09-07T13:05:20;4.47;;;4.08;;
22318;SDS011;11327;52.334;9.506;2023-09-07T13:08:41;7.62;;;4.00;;
22318;SDS011;11327;52.334;9.506;2023-09-07T13:12:01;6.78;;;3.95;;
22318;SDS011;11327;52.334;9.506;2023-09-07T13:15:22;5.25;;;3.92;;
22318;SDS011;11327;52.334;9.506;2023-09-07T13:18:43;4.47;;;3.80;;
22318;SDS011;11327;52.334;9.506;2023-09-07T13:22:04;5.95;;;4.08;;
22318;SDS011;11327;52.334;9.506;2023-09-07T13:25:26;6.10;;;4.42;;
22318;SDS011;11327;52.334;9.506;2023-09-07T13:28:47;5.50;;;4.12;;
22318;SDS011;11327;52.334;9.506;2023-09-07T13:32:08;5.42;;;3.72;;
22318;SDS011;11327;52.334;9.506;2023-09-07T13:35:28;4.70;;;4.00;;
22318;SDS011;11327;52.334;9.506;2023-09-07T13:38:49;7.03;;;4.05;;
22318;SDS011;11327;52.334;9.506;2023-09-07T13:42:10;5.47;;;4.17;;
22318;SDS011;11327;52.334;9.506;2023-09-07T13:45:31;5.28;;;4.05;;
22318;SDS011;11327;52.334;9.506;2023-09-07T13:48:51;4.70;;;4.20;;
22318;SDS011;11327;52.334;9.506;2023-09-07T13:52:12;5.10;;;3.60;;
22318;SDS011;11327;52.334;9.506;2023-09-07T13:55:34;6.25;;;4.28;;
22318;SDS011;11327;52.334;9.506;2023-09-07T13:58:55;5.17;;;4.12;;
22318;SDS011;11327;52.334;9.506;2023-09-07T14:02:16;5.80;;;4.08;;
22318;SDS011;11327;52.334;9.506;2023-09-07T14:05:36;4.55;;;3.83;;
22318;SDS011;11327;52.334;9.506;2023-09-07T14:08:57;6.30;;;4.20;;
22318;SDS011;11327;52.334;9.506;2023-09-07T14:12:18;5.67;;;4.25;;
22318;SDS011;11327;52.334;9.506;2023-09-07T14:15:39;6.55;;;4.60;;
22318;SDS011;11327;52.334;9.506;2023-09-07T14:19:00;4.85;;;4.10;;
22318;SDS011;11327;52.334;9.506;2023-09-07T14:22:20;4.83;;;3.80;;
22318;SDS011;11327;52.334;9.506;2023-09-07T14:25:42;7.42;;;4.35;;
22318;SDS011;11327;52.334;9.506;2023-09-07T14:29:05;6.40;;;3.85;;
22318;SDS011;11327;52.334;9.506;2023-09-07T14:32:25;4.58;;;4.03;;
22318;SDS011;11327;52.334;9.506;2023-09-07T14:35:46;4.70;;;3.75;;
22318;SDS011;11327;52.334;9.506;2023-09-07T14:39:07;6.37;;;3.80;;
22318;SDS011;11327;52.334;9.506;2023-09-07T14:42:29;5.30;;;3.83;;
22318;SDS011;11327;52.334;9.506;2023-09-07T14:45:51;4.47;;;3.58;;
22318;SDS011;11327;52.334;9.506;2023-09-07T14:49:12;6.00;;;3.80;;
22318;SDS011;11327;52.334;9.506;2023-09-07T14:52:33;4.20;;;3.77;;
22318;SDS011;11327;52.334;9.506;2023-09-07T14:55:56;5.80;;;3.87;;
22318;SDS011;11327;52.334;9.506;2023-09-07T14:59:17;4.15;;;3.50;;
22318;SDS011;11327;52.334;9.506;2023-09-07T15:02:38;5.33;;;3.60;;
22318;SDS011;11327;52.334;9.506;2023-09-07T15:05:58;4.92;;;3.60;;
22318;SDS011;11327;52.334;9.506;2023-09-07T15:09:19;4.65;;;3.83;;
22318;SDS011;11327;52.334;9.506;2023-09-07T15:12:40;8.33;;;3.92;;
22318;SDS011;11327;52.334;9.506;2023-09-07T15:16:01;3.95;;;3.55;;
22318;SDS011;11327;52.334;9.506;2023-09-07T15:19:21;5.65;;;3.62;;
22318;SDS011;11327;52.334;9.506;2023-09-07T15:22:42;5.60;;;3.40;;
22318;SDS011;11327;52.334;9.506;2023-09-07T15:26:03;4.45;;;3.67;;
22318;SDS011;11327;52.334;9.506;2023-09-07T15:29:24;6.37;;;3.50;;
22318;SDS011;11327;52.334;9.506;2023-09-07T15:32:44;7.17;;;3.75;;
22318;SDS011;11327;52.334;9.506;2023-09-07T15:36:05;7.25;;;3.60;;
22318;SDS011;11327;52.334;9.506;2023-09-07T15:39:26;5.30;;;3.25;;
22318;SDS011;11327;52.334;9.506;2023-09-07T15:42:47;5.05;;;3.47;;
22318;SDS011;11327;52.334;9.506;2023-09-07T15:46:08;4.78;;;3.12;;
22318;SDS011;11327;52.334;9.506;2023-09-07T15:49:29;4.20;;;3.72;;
22318;SDS011;11327;52.334;9.506;2023-09-07T15:52:50;4.92;;;3.55;;
22318;SDS011;11327;52.334;9.506;2023-09-07T15:56:11;7.08;;;3.80;;
22318;SDS011;11327;52.334;9.506;2023-09-07T15:59:32;6.92;;;3.75;;
22318;SDS011;11327;52.334;9.506;2023-09-07T16:02:53;4.83;;;3.87;;
22318;SDS011;11327;52.334;9.506;2023-09-07T16:06:13;4.67;;;3.42;;
22318;SDS011;11327;52.334;9.506;2023-09-07T16:09:34;4.47;;;3.52;;
22318;SDS011;11327;52.334;9.506;2023-09-07T16:12:55;5.62;;;3.10;;
22318;SDS011;11327;52.334;9.506;2023-09-07T16:16:16;6.58;;;3.55;;
22318;SDS011;11327;52.334;9.506;2023-09-07T16:19:36;5.72;;;3.77;;
22318;SDS011;11327;52.334;9.506;2023-09-07T16:22:57;4.58;;;3.62;;
22318;SDS011;11327;52.334;9.506;2023-09-07T16:26:18;4.90;;;3.60;;
22318;SDS011;11327;52.334;9.506;2023-09-07T16:29:39;4.97;;;3.37;;
22318;SDS011;11327;52.334;9.506;2023-09-07T16:33:02;4.55;;;3.50;;
22318;SDS011;11327;52.334;9.506;2023-09-07T16:36:23;4.87;;;3.50;;
22318;SDS011;11327;52.334;9.506;2023-09-07T16:39:44;6.10;;;3.72;;
22318;SDS011;11327;52.334;9.506;2023-09-07T16:43:06;5.90;;;3.47;;
22318;SDS011;11327;52.334;9.506;2023-09-07T16:46:27;4.25;;;3.50;;
22318;SDS011;11327;52.334;9.506;2023-09-07T16:49:47;4.60;;;3.80;;
22318;SDS011;11327;52.334;9.506;2023-09-07T16:53:08;5.22;;;3.72;;
22318;SDS011;11327;52.334;9.506;2023-09-07T16:56:29;6.47;;;3.83;;
22318;SDS011;11327;52.334;9.506;2023-09-07T16:59:51;6.00;;;3.62;;
22318;SDS011;11327;52.334;9.506;2023-09-07T17:03:12;4.10;;;3.70;;
22318;SDS011;11327;52.334;9.506;2023-09-07T17:06:33;6.47;;;3.92;;
22318;SDS011;11327;52.334;9.506;2023-09-07T17:09:54;4.33;;;3.70;;
22318;SDS011;11327;52.334;9.506;2023-09-07T17:13:15;4.53;;;3.70;;
22318;SDS011;11327;52.334;9.506;2023-09-07T17:16:38;4.62;;;3.58;;
22318;SDS011;11327;52.334;9.506;2023-09-07T17:19:58;5.03;;;3.70;;
22318;SDS011;11327;52.334;9.506;2023-09-07T17:23:21;4.75;;;3.70;;
22318;SDS011;11327;52.334;9.506;2023-09-07T17:26:42;5.97;;;3.80;;
22318;SDS011;11327;52.334;9.506;2023-09-07T17:30:03;4.65;;;3.83;;
22318;SDS011;11327;52.334;9.506;2023-09-07T17:33:24;4.55;;;3.80;;
22318;SDS011;11327;52.334;9.506;2023-09-07T17:36:46;5.15;;;3.60;;
22318;SDS011;11327;52.334;9.506;2023-09-07T17:40:07;5.65;;;3.52;;
22318;SDS011;11327;52.334;9.506;2023-09-07T17:43:30;5.33;;;3.60;;
22318;SDS011;11327;52.334;9.506;2023-09-07T17:46:50;4.50;;;3.50;;
22318;SDS011;11327;52.334;9.506;2023-09-07T17:50:11;5.28;;;4.22;;
22318;SDS011;11327;52.334;9.506;2023-09-07T17:53:33;4.00;;;3.60;;
22318;SDS011;11327;52.334;9.506;2023-09-07T17:56:54;4.03;;;3.62;;
22318;SDS011;11327;52.334;9.506;2023-09-07T18:00:15;4.45;;;3.72;;
22318;SDS011;11327;52.334;9.506;2023-09-07T18:03:36;5.33;;;3.58;;
22318;SDS011;11327;52.334;9.506;2023-09-07T18:06:57;4.10;;;3.25;;
22318;SDS011;11327;52.334;9.506;2023-09-07T18:10:17;5.65;;;3.70;;
22318;SDS011;11327;52.334;9.506;2023-09-07T18:13:38;4.37;;;3.55;;
22318;SDS011;11327;52.334;9.506;2023-09-07T18:16:59;4.75;;;3.50;;
22318;SDS011;11327;52.334;9.506;2023-09-07T18:20:20;4.60;;;3.92;;
22318;SDS011;11327;52.334;9.506;2023-09-07T18:23:40;5.03;;;3.65;;
22318;SDS011;11327;52.334;9.506;2023-09-07T18:27:01;5.62;;;4.17;;
22318;SDS011;11327;52.334;9.506;2023-09-07T18:30:22;4.67;;;3.65;;
22318;SDS011;11327;52.334;9.506;2023-09-07T18:33:42;4.03;;;3.62;;
22318;SDS011;11327;52.334;9.506;2023-09-07T18:37:03;5.35;;;3.45;;
22318;SDS011;11327;52.334;9.506;2023-09-07T18:40:24;4.42;;;3.85;;
22318;SDS011;11327;52.334;9.506;2023-09-07T18:43:45;4.67;;;4.22;;
22318;SDS011;11327;52.334;9.506;2023-09-07T18:47:06;5.37;;;4.00;;
22318;SDS011;11327;52.334;9.506;2023-09-07T18:50:26;4.20;;;3.62;;
22318;SDS011;11327;52.334;9.506;2023-09-07T18:53:47;4.92;;;3.85;;
22318;SDS011;11327;52.334;9.506;2023-09-07T18:57:08;4.58;;;3.98;;
22318;SDS011;11327;52.334;9.506;2023-09-07T19:00:29;4.55;;;4.15;;
22318;SDS011;11327;52.334;9.506;2023-09-07T19:03:50;5.08;;;4.30;;
22318;SDS011;11327;52.334;9.506;2023-09-07T19:07:13;6.55;;;4.17;;
22318;SDS011;11327;52.334;9.506;2023-09-07T19:10:35;5.00;;;4.47;;
22318;SDS011;11327;52.334;9.506;2023-09-07T19:13:55;5.37;;;4.50;;
22318;SDS011;11327;52.334;9.506;2023-09-07T19:17:16;7.05;;;4.33;;
22318;SDS011;11327;52.334;9.506;2023-09-07T19:20:37;5.85;;;4.12;;
22318;SDS011;11327;52.334;9.506;2023-09-07T19:23:58;5.08;;;4.35;;
22318;SDS011;11327;52.334;9.506;2023-09-07T19:27:19;6.20;;;4.30;;
22318;SDS011;11327;52.334;9.506;2023-09-07T19:30:40;9.30;;;4.87;;
22318;SDS011;11327;52.334;9.506;2023-09-07T19:34:01;6.00;;;4.40;;
22318;SDS011;11327;52.334;9.506;2023-09-07T19:37:24;6.20;;;4.80;;
22318;SDS011;11327;52.334;9.506;2023-09-07T19:40:45;5.08;;;4.42;;
22318;SDS011;11327;52.334;9.506;2023-09-07T19:44:05;6.62;;;4.53;;
22318;SDS011;11327;52.334;9.506;2023-09-07T19:47:27;4.80;;;4.22;;
22318;SDS011;11327;52.334;9.506;2023-09-07T19:50:47;5.55;;;4.33;;
22318;SDS011;11327;52.334;9.506;2023-09-07T19:54:08;4.70;;;4.17;;
22318;SDS011;11327;52.334;9.506;2023-09-07T19:57:29;8.28;;;4.20;;
22318;SDS011;11327;52.334;9.506;2023-09-07T20:00:49;5.97;;;4.35;;
22318;SDS011;11327;52.334;9.506;2023-09-07T20:04:11;5.37;;;4.47;;
22318;SDS011;11327;52.334;9.506;2023-09-07T20:07:32;7.15;;;4.80;;
22318;SDS011;11327;52.334;9.506;2023-09-07T20:10:53;5.53;;;4.60;;